Time;durP1;ratioP1;P1;durP2;ratioP2;P2;SDS_P1;SDS_P2;PMS_P1;PMS_P2;Temp;Humidity;BMP_temperature;BMP_pressure;BME280_temperature;BME280_humidity;BME280_pressure;Samples;Min_cycle;Max_cycle;Signal;HPM_P1;HPM_P2
2023/08/28 00:01:32;;;;;;;0.87;0.70;;;14.40;99.90;;;;;;5073919;28;20431;-71
2023/08/28 00:03:57;;;;;;;0.67;0.57;;;14.40;99.90;;;;;;5073703;28;20407;-71
2023/08/28 00:06:23;;;;;;;0.50;0.40;;;14.50;99.90;;;;;;5073773;28;20222;-72
2023/08/28 00:08:49;;;;;;;0.60;0.60;;;14.50;99.90;;;;;;5074244;28;20567;-71
2023/08/28 00:11:14;;;;;;;0.93;0.90;;;14.60;99.90;;;;;;5074017;28;20681;-71
2023/08/28 00:13:40;;;;;;;1.10;1.10;;;14.40;99.90;;;;;;5073950;28;20170;-72
2023/08/28 00:16:05;;;;;;;0.50;0.50;;;14.40;99.90;;;;;;5073767;28;20333;-71
2023/08/28 00:18:31;;;;;;;0.80;0.80;;;14.40;99.90;;;;;;5073954;28;20165;-71
2023/08/28 00:20:57;;;;;;;0.40;0.40;;;14.30;99.90;;;;;;5073920;28;20225;-71
2023/08/28 00:23:22;;;;;;;0.50;0.50;;;14.30;99.90;;;;;;5073661;28;20242;-71
2023/08/28 00:25:48;;;;;;;0.60;0.60;;;14.20;99.90;;;;;;5073345;28;20187;-70
2023/08/28 00:28:13;;;;;;;0.50;0.50;;;14.20;99.90;;;;;;5073625;28;20202;-72
2023/08/28 00:30:39;;;;;;;0.50;0.50;;;14.20;99.90;;;;;;5073622;28;20186;-72
2023/08/28 00:33:05;;;;;;;0.40;0.40;;;14.20;99.90;;;;;;5073626;28;20653;-71
2023/08/28 00:35:30;;;;;;;0.60;0.60;;;14.20;99.90;;;;;;5073409;28;20614;-72
2023/08/28 00:37:56;;;;;;;0.63;0.63;;;14.20;99.90;;;;;;5073805;28;20180;-71
2023/08/28 00:40:21;;;;;;;0.50;0.50;;;14.10;99.90;;;;;;5073429;28;20700;-71
2023/08/28 00:42:47;;;;;;;2.27;2.17;;;14.10;99.90;;;;;;5073506;28;20190;-71
2023/08/28 00:45:13;;;;;;;0.70;0.70;;;14.10;99.90;;;;;;5072466;28;20253;-71
2023/08/28 00:47:39;;;;;;;0.40;0.40;;;14.00;99.90;;;;;;5073461;28;20201;-71
2023/08/28 00:50:06;;;;;;;0.50;0.50;;;14.10;99.90;;;;;;5073421;28;20189;-71
2023/08/28 00:52:32;;;;;;;0.50;0.50;;;14.20;99.90;;;;;;5073466;28;20517;-72
2023/08/28 00:54:58;;;;;;;1.17;1.13;;;14.20;99.90;;;;;;5073206;28;20957;-71
2023/08/28 00:57:24;;;;;;;0.40;0.40;;;14.30;99.90;;;;;;5073296;28;20414;-71
2023/08/28 00:59:49;;;;;;;0.60;0.50;;;14.30;99.90;;;;;;5073282;28;20649;-72
2023/08/28 01:02:16;;;;;;;0.60;0.60;;;;;;;;;;5073182;28;20233;-71
2023/08/28 01:04:42;;;;;;;1.23;1.00;;;;;;;;;;5073322;28;20231;-72
2023/08/28 01:07:08;;;;;;;0.40;0.40;;;;;;;;;;5073411;28;20860;-71
2023/08/28 01:09:57;;;;;;;2.90;0.80;;;14.10;99.90;;;;;;5073361;28;20482;-72
2023/08/28 01:12:52;;;;;;;0.50;0.50;;;14.10;99.90;;;;;;5073112;28;20786;-72
2023/08/28 01:15:23;;;;;;;0.50;0.40;;;14.10;99.90;;;;;;5072149;28;20408;-72
2023/08/28 01:17:55;;;;;;;0.80;0.53;;;14.10;99.90;;;;;;5072510;28;20418;-72
2023/08/28 01:20:23;;;;;;;1.07;0.77;;;14.20;99.90;;;;;;5073211;28;20409;-71
2023/08/28 01:22:54;;;;;;;1.17;1.07;;;14.20;99.90;;;;;;5073349;28;20458;-71
2023/08/28 01:25:20;;;;;;;0.80;0.80;;;14.10;99.90;;;;;;5072953;28;20404;-72
2023/08/28 01:27:46;;;;;;;0.60;0.60;;;14.00;99.90;;;;;;5073026;28;20845;-72
2023/08/28 01:30:14;;;;;;;0.40;0.40;;;14.00;99.90;;;;;;5073194;28;20404;-71
2023/08/28 01:32:42;;;;;;;0.50;0.50;;;14.00;99.90;;;;;;5073091;28;20420;-71
2023/08/28 01:35:31;;;;;;;1.03;0.93;;;14.00;99.90;;;;;;5073017;28;20408;-72
2023/08/28 01:38:12;;;;;;;1.63;1.00;;;14.00;99.90;;;;;;5073319;28;20415;-72
2023/08/28 01:40:48;;;;;;;0.40;0.40;;;14.00;99.90;;;;;;5072743;28;20418;-71
2023/08/28 01:43:22;;;;;;;0.40;0.40;;;14.00;99.90;;;;;;5072942;28;20513;-71
2023/08/28 01:45:49;;;;;;;1.07;0.60;;;14.00;99.90;;;;;;5072706;28;20457;-71
2023/08/28 01:48:15;;;;;;;0.47;0.47;;;;;;;;;;5073098;28;20491;-72
2023/08/28 01:50:41;;;;;;;1.07;0.80;;;14.00;99.90;;;;;;5072683;28;20511;-72
2023/08/28 01:53:06;;;;;;;2.17;1.10;;;14.00;99.90;;;;;;5072941;28;20899;-71
2023/08/28 01:55:56;;;;;;;3.70;0.50;;;14.00;99.90;;;;;;5073017;28;20179;-71
2023/08/28 01:58:22;;;;;;;0.50;0.50;;;14.00;99.90;;;;;;5076578;28;20174;-71
2023/08/28 02:00:48;;;;;;;0.70;0.63;;;14.00;99.90;;;;;;5076442;28;20426;-72
2023/08/28 02:03:13;;;;;;;0.33;0.33;;;14.00;99.90;;;;;;5076322;28;20669;-71
2023/08/28 02:05:39;;;;;;;0.30;0.30;;;13.90;99.90;;;;;;5075672;28;20171;-72
2023/08/28 02:08:05;;;;;;;1.00;1.00;;;13.90;99.90;;;;;;5076064;28;20175;-71
2023/08/28 02:10:31;;;;;;;0.73;0.70;;;13.80;99.90;;;;;;5076070;28;20169;-72
2023/08/28 02:12:56;;;;;;;0.80;0.80;;;13.80;99.90;;;;;;5075928;28;20514;-71
2023/08/28 02:15:22;;;;;;;0.80;0.80;;;13.70;99.90;;;;;;5075941;28;20627;-71
2023/08/28 02:17:47;;;;;;;0.50;0.50;;;13.70;99.90;;;;;;5076132;28;20174;-72
2023/08/28 02:20:13;;;;;;;0.70;0.70;;;13.70;99.90;;;;;;5076207;28;20170;-72
2023/08/28 02:22:39;;;;;;;0.93;0.93;;;;;;;;;;5076225;28;20201;-72
2023/08/28 02:25:07;;;;;;;0.80;0.80;;;13.60;99.90;;;;;;5075828;28;20173;-72
2023/08/28 02:27:33;;;;;;;1.00;1.00;;;13.60;99.90;;;;;;5076165;28;20867;-71
2023/08/28 02:29:58;;;;;;;0.50;0.50;;;13.70;99.90;;;;;;5076186;28;20444;-70
2023/08/28 02:32:24;;;;;;;2.90;2.60;;;13.60;99.90;;;;;;5075857;28;20251;-71
2023/08/28 02:34:50;;;;;;;0.50;0.50;;;13.60;99.90;;;;;;5075722;28;20508;-71
2023/08/28 02:37:15;;;;;;;1.37;0.93;;;13.60;99.90;;;;;;5076084;28;20182;-71
2023/08/28 02:39:41;;;;;;;0.70;0.70;;;13.60;99.90;;;;;;5075831;28;20177;-71
2023/08/28 02:42:06;;;;;;;0.50;0.50;;;13.70;99.90;;;;;;5075720;28;20197;-71
2023/08/28 02:44:32;;;;;;;0.60;0.60;;;13.60;99.90;;;;;;5075569;28;20177;-71
2023/08/28 02:46:58;;;;;;;1.17;1.07;;;13.60;99.90;;;;;;5075546;28;20193;-72
2023/08/28 02:49:24;;;;;;;0.40;0.40;;;;;;;;;;5075274;28;20581;-72
2023/08/28 02:51:49;;;;;;;0.50;0.50;;;13.50;99.90;;;;;;5075525;28;20200;-72
2023/08/28 02:54:15;;;;;;;0.53;0.53;;;;;;;;;;5075129;28;20415;-71
2023/08/28 02:56:41;;;;;;;0.60;0.60;;;13.60;99.90;;;;;;5075238;28;20297;-72
2023/08/28 02:59:07;;;;;;;0.50;0.50;;;13.60;99.90;;;;;;5075194;28;20406;-72
2023/08/28 03:01:36;;;;;;;0.93;0.63;;;13.50;99.90;;;;;;5074982;28;20535;-72
2023/08/28 03:04:04;;;;;;;1.27;1.17;;;13.50;99.90;;;;;;5074199;28;20415;-71
2023/08/28 03:06:34;;;;;;;0.40;0.40;;;13.50;99.90;;;;;;5074904;28;20458;-71
2023/08/28 03:09:00;;;;;;;0.60;0.60;;;13.40;99.90;;;;;;5074129;28;20408;-71
2023/08/28 03:11:26;;;;;;;1.00;0.93;;;13.40;99.90;;;;;;5075035;28;20452;-72
2023/08/28 03:13:52;;;;;;;0.60;0.60;;;13.40;99.90;;;;;;5074972;28;20194;-71
2023/08/28 03:16:17;;;;;;;0.53;0.40;;;13.40;99.90;;;;;;5074638;28;20178;-71
2023/08/28 03:18:43;;;;;;;1.00;1.00;;;13.50;99.90;;;;;;5074719;28;20514;-72
2023/08/28 03:21:09;;;;;;;0.50;0.50;;;;;;;;;;5075224;28;20538;-71
2023/08/28 03:23:35;;;;;;;0.40;0.40;;;13.50;99.90;;;;;;5075272;28;20638;-72
2023/08/28 03:26:02;;;;;;;0.70;0.70;;;13.50;99.90;;;;;;5074754;28;20457;-71
2023/08/28 03:28:27;;;;;;;0.77;0.77;;;13.40;99.90;;;;;;5074869;28;20533;-72
2023/08/28 03:30:57;;;;;;;0.40;0.40;;;13.50;99.90;;;;;;5075225;28;20404;-70
2023/08/28 03:33:22;;;;;;;0.30;0.30;;;13.50;99.90;;;;;;5074741;28;20272;-71
2023/08/28 03:35:48;;;;;;;1.03;0.90;;;13.50;99.90;;;;;;5074562;28;20436;-72
2023/08/28 03:38:14;;;;;;;0.40;0.40;;;;;;;;;;5074764;28;20165;-72
2023/08/28 03:40:40;;;;;;;0.60;0.50;;;13.60;99.90;;;;;;5074741;28;20177;-70
2023/08/28 03:43:05;;;;;;;0.50;0.50;;;13.60;99.90;;;;;;5074443;28;20496;-71
2023/08/28 03:45:31;;;;;;;0.40;0.40;;;13.60;99.90;;;;;;5074257;28;20205;-72
2023/08/28 03:47:57;;;;;;;0.40;0.40;;;13.60;99.90;;;;;;5074562;28;20197;-71
2023/08/28 03:50:24;;;;;;;0.50;0.50;;;13.60;99.90;;;;;;5074432;28;20892;-71
2023/08/28 03:52:49;;;;;;;1.00;0.90;;;13.60;99.90;;;;;;5074320;28;20794;-71
2023/08/28 03:55:15;;;;;;;0.60;0.60;;;13.60;99.90;;;;;;5074260;28;20411;-71
2023/08/28 03:57:41;;;;;;;0.60;0.60;;;13.50;99.90;;;;;;5074202;28;20173;-71
2023/08/28 04:00:12;;;;;;;0.67;0.67;;;13.40;99.90;;;;;;5074197;28;20644;-71
2023/08/28 04:02:39;;;;;;;0.30;0.30;;;13.40;99.90;;;;;;5074274;28;20277;-71
2023/08/28 04:05:06;;;;;;;1.10;0.70;;;13.40;99.90;;;;;;5073900;28;20435;-71
2023/08/28 04:07:32;;;;;;;0.60;0.60;;;13.40;99.90;;;;;;5074186;28;20855;-72
2023/08/28 04:09:58;;;;;;;1.90;1.80;;;13.50;99.90;;;;;;5074198;28;20409;-71
2023/08/28 04:12:24;;;;;;;2.03;0.90;;;13.50;99.90;;;;;;5074016;28;20435;-71
2023/08/28 04:14:49;;;;;;;0.40;0.40;;;13.50;99.90;;;;;;5073804;28;20412;-71
2023/08/28 04:17:16;;;;;;;0.60;0.50;;;13.40;99.90;;;;;;5074136;28;20177;-71
2023/08/28 04:19:42;;;;;;;0.73;0.73;;;13.40;99.90;;;;;;5073010;28;20180;-71
2023/08/28 04:22:08;;;;;;;0.60;0.60;;;13.40;99.90;;;;;;5073742;28;20912;-72
2023/08/28 04:24:33;;;;;;;2.23;2.13;;;13.40;99.90;;;;;;5073594;28;20494;-71
2023/08/28 04:26:59;;;;;;;1.97;0.60;;;13.30;99.90;;;;;;5073740;28;20193;-72
2023/08/28 04:29:24;;;;;;;0.80;0.53;;;13.30;99.90;;;;;;5073736;28;20177;-72
2023/08/28 04:31:50;;;;;;;0.53;0.50;;;13.30;99.90;;;;;;5073630;28;20188;-72
2023/08/28 04:34:16;;;;;;;0.50;0.50;;;13.30;99.90;;;;;;5073598;28;20222;-71
2023/08/28 04:36:42;;;;;;;0.50;0.50;;;13.30;99.90;;;;;;5073545;28;20165;-71
2023/08/28 04:39:07;;;;;;;0.53;0.53;;;13.30;99.90;;;;;;5073547;28;20411;-71
2023/08/28 04:41:33;;;;;;;13.33;1.23;;;13.30;99.90;;;;;;5073337;28;20524;-71
2023/08/28 04:43:59;;;;;;;0.30;0.30;;;13.30;99.90;;;;;;5073492;28;20621;-71
2023/08/28 04:46:28;;;;;;;1.20;1.20;;;13.30;99.90;;;;;;5073437;28;20201;-71
2023/08/28 04:48:54;;;;;;;0.60;0.60;;;13.30;99.90;;;;;;5073310;28;20652;-72
2023/08/28 04:51:20;;;;;;;0.40;0.40;;;;;;;;;;5073448;28;20499;-71
2023/08/28 04:53:46;;;;;;;0.60;0.60;;;13.30;99.90;;;;;;5073463;28;20181;-72
2023/08/28 04:56:12;;;;;;;0.70;0.70;;;13.30;99.90;;;;;;5073379;28;20465;-71
2023/08/28 04:58:37;;;;;;;0.47;0.37;;;13.20;99.90;;;;;;5073378;28;20228;-72
2023/08/28 05:01:03;;;;;;;0.70;0.70;;;;;;;;;;5073433;28;20810;-71
2023/08/28 05:03:29;;;;;;;0.90;0.50;;;13.00;99.90;;;;;;5073192;28;20197;-71
2023/08/28 05:05:55;;;;;;;0.57;0.57;;;13.00;99.90;;;;;;5073125;28;20453;-71
2023/08/28 05:08:21;;;;;;;1.13;0.77;;;13.10;99.90;;;;;;5073356;28;20244;-71
2023/08/28 05:10:46;;;;;;;0.40;0.40;;;13.00;99.90;;;;;;5073245;28;20871;-70
2023/08/28 05:13:12;;;;;;;0.53;0.53;;;13.00;99.90;;;;;;5073085;28;20189;-71
2023/08/28 05:15:38;;;;;;;2.10;1.23;;;;;;;;;;5073118;28;20177;-71
2023/08/28 05:18:04;;;;;;;0.60;0.60;;;13.00;99.90;;;;;;5073185;28;20400;-71
2023/08/28 05:20:30;;;;;;;0.40;0.40;;;13.10;99.90;;;;;;5073241;28;20465;-71
2023/08/28 05:22:55;;;;;;;0.40;0.40;;;13.10;99.90;;;;;;5072991;28;20211;-70
2023/08/28 05:25:21;;;;;;;0.40;0.40;;;13.00;99.90;;;;;;5072815;28;20178;-72
2023/08/28 05:27:47;;;;;;;2.33;1.57;;;12.90;99.90;;;;;;5073117;28;20627;-72
2023/08/28 05:30:13;;;;;;;1.03;0.67;;;13.00;99.90;;;;;;5073097;28;20637;-70
2023/08/28 05:32:38;;;;;;;1.23;1.07;;;13.10;99.90;;;;;;5077157;28;20248;-71
2023/08/28 05:35:05;;;;;;;1.03;0.93;;;13.10;99.90;;;;;;5076891;28;20410;-72
2023/08/28 05:37:31;;;;;;;0.80;0.80;;;13.20;99.90;;;;;;5077153;28;20173;-71
2023/08/28 05:39:57;;;;;;;0.70;0.60;;;13.20;99.90;;;;;;5077046;28;20922;-70
2023/08/28 05:42:23;;;;;;;0.60;0.60;;;13.20;99.90;;;;;;5076817;28;20951;-72
2023/08/28 05:44:48;;;;;;;1.33;0.90;;;13.30;99.90;;;;;;5076651;28;20188;-70
2023/08/28 05:47:14;;;;;;;1.00;1.00;;;13.30;99.90;;;;;;5076857;28;20334;-71
2023/08/28 05:49:40;;;;;;;1.07;1.07;;;13.30;99.90;;;;;;5076664;28;20193;-71
2023/08/28 05:52:06;;;;;;;0.57;0.57;;;13.30;99.90;;;;;;5076558;28;20197;-72
2023/08/28 05:54:32;;;;;;;0.50;0.50;;;13.30;99.90;;;;;;5076547;28;20541;-71
2023/08/28 05:56:57;;;;;;;1.77;1.67;;;13.30;99.90;;;;;;5076620;28;20264;-71
2023/08/28 05:59:23;;;;;;;0.70;0.70;;;13.80;99.90;;;;;;5075730;28;20173;-72
2023/08/28 06:01:49;;;;;;;0.70;0.70;;;13.40;99.90;;;;;;5075067;28;20841;-70
2023/08/28 06:04:14;;;;;;;0.50;0.50;;;13.20;99.90;;;;;;5076006;28;20173;-71
2023/08/28 06:06:40;;;;;;;0.57;0.57;;;;;;;;;;5076373;28;20658;-71
2023/08/28 06:09:07;;;;;;;0.40;0.40;;;13.20;99.90;;;;;;5075640;28;20654;-72
2023/08/28 06:11:33;;;;;;;0.53;0.53;;;13.20;99.90;;;;;;5075333;28;20756;-71
2023/08/28 06:13:59;;;;;;;0.40;0.40;;;13.40;99.90;;;;;;5076472;28;20481;-70
2023/08/28 06:16:25;;;;;;;1.27;0.83;;;13.40;99.90;;;;;;5076620;28;20258;-71
2023/08/28 06:18:51;;;;;;;0.90;0.90;;;13.60;99.90;;;;;;5076351;28;20448;-70
2023/08/28 06:21:16;;;;;;;1.10;1.00;;;13.50;99.90;;;;;;5076704;28;20174;-72
2023/08/28 06:23:42;;;;;;;1.43;1.33;;;13.80;99.90;;;;;;5076589;28;20174;-71
2023/08/28 06:26:08;;;;;;;0.40;0.40;;;14.10;99.90;;;;;;5074792;28;20205;-72
2023/08/28 06:28:34;;;;;;;0.80;0.80;;;14.30;99.90;;;;;;5076237;28;20200;-71
2023/08/28 06:31:02;;;;;;;0.80;0.80;;;14.40;99.90;;;;;;5076321;28;20198;-71
2023/08/28 06:33:28;;;;;;;0.40;0.40;;;14.50;99.90;;;;;;5075177;28;20838;-72
2023/08/28 06:35:53;;;;;;;0.70;0.70;;;15.00;99.90;;;;;;5075394;28;20458;-71
2023/08/28 06:38:19;;;;;;;0.50;0.50;;;;;;;;;;5076121;28;20212;-69
2023/08/28 06:40:50;;;;;;;0.70;0.70;;;14.50;99.90;;;;;;5075896;28;20249;-71
2023/08/28 06:43:16;;;;;;;0.47;0.47;;;14.40;99.90;;;;;;5074873;28;20429;-71
2023/08/28 06:45:42;;;;;;;0.47;0.47;;;14.30;99.90;;;;;;5075631;28;20419;-70
2023/08/28 06:48:08;;;;;;;1.00;0.63;;;14.30;99.90;;;;;;5076047;28;20510;-70
2023/08/28 06:50:34;;;;;;;0.40;0.40;;;14.20;99.90;;;;;;5076205;28;20417;-70
2023/08/28 06:53:00;;;;;;;0.40;0.40;;;14.20;99.90;;;;;;5075746;28;20518;-70
2023/08/28 06:55:27;;;;;;;0.50;0.50;;;14.10;99.90;;;;;;5075546;28;20475;-71
2023/08/28 06:57:53;;;;;;;1.07;1.07;;;14.10;99.90;;;;;;5075759;28;20410;-72
2023/08/28 07:00:19;;;;;;;0.73;0.70;;;14.10;99.90;;;;;;5076126;28;20884;-71
2023/08/28 07:02:45;;;;;;;0.50;0.50;;;;;;;;;;5075511;28;20420;-72
2023/08/28 07:05:10;;;;;;;0.40;0.40;;;14.00;99.90;;;;;;5075210;28;20668;-71
2023/08/28 07:07:36;;;;;;;0.30;0.30;;;13.90;99.90;;;;;;5075316;28;20552;-72
2023/08/28 07:10:04;;;;;;;1.00;0.93;;;13.90;99.90;;;;;;5074728;28;20197;-71
2023/08/28 07:12:29;;;;;;;0.50;0.50;;;13.80;99.90;;;;;;5073771;28;20907;-72
2023/08/28 07:15:10;;;;;;;0.50;0.50;;;13.60;99.90;;;;;;5074397;28;20411;-71
2023/08/28 07:17:36;;;;;;;1.23;0.80;;;;;;;;;;5074495;28;20183;-71
2023/08/28 07:20:04;;;;;;;3.70;0.97;;;13.90;99.90;;;;;;5074381;28;20438;-70
2023/08/28 07:22:30;;;;;;;1.23;1.10;;;14.00;99.90;;;;;;5074544;28;20431;-70
2023/08/28 07:24:56;;;;;;;0.57;0.53;;;14.10;99.90;;;;;;5075093;28;20411;-71
2023/08/28 07:27:21;;;;;;;0.50;0.50;;;14.20;99.90;;;;;;5074526;28;20198;-72
2023/08/28 07:29:47;;;;;;;1.10;1.10;;;14.30;99.90;;;;;;5074011;28;20765;-71
2023/08/28 07:32:13;;;;;;;0.50;0.50;;;14.30;99.90;;;;;;5074699;28;20196;-71
2023/08/28 07:34:39;;;;;;;0.53;0.53;;;;;;;;;;5074792;28;20183;-71
2023/08/28 07:37:05;;;;;;;0.50;0.50;;;14.50;99.90;;;;;;5075160;28;20626;-73
2023/08/28 07:39:30;;;;;;;0.70;0.70;;;14.40;99.90;;;;;;5074951;28;20741;-71
2023/08/28 07:41:59;;;;;;;0.87;0.87;;;14.40;99.90;;;;;;5074131;28;20431;-74
2023/08/28 07:44:25;;;;;;;0.53;0.53;;;14.50;99.90;;;;;;5075164;28;20179;-71
2023/08/28 07:46:51;;;;;;;0.90;0.70;;;14.40;99.90;;;;;;5073586;28;20454;-70
2023/08/28 07:49:18;;;;;;;0.70;0.70;;;14.30;99.90;;;;;;5073253;28;20268;-71
2023/08/28 07:51:44;;;;;;;0.67;0.67;;;14.40;99.90;;;;;;5072878;28;20866;-70
2023/08/28 07:54:11;;;;;;;0.60;0.60;;;14.40;99.90;;;;;;5073468;28;20404;-71
2023/08/28 07:56:37;;;;;;;0.53;0.53;;;14.40;99.90;;;;;;5073772;28;20419;-71
2023/08/28 07:59:04;;;;;;;0.57;0.57;;;14.40;99.90;;;;;;5073422;28;20434;-70
2023/08/28 08:01:32;;;;;;;0.50;0.50;;;14.40;99.90;;;;;;5073159;28;20231;-71
2023/08/28 08:03:58;;;;;;;1.33;0.70;;;14.30;99.90;;;;;;5073994;28;20404;-70
2023/08/28 08:06:24;;;;;;;0.70;0.60;;;14.30;99.90;;;;;;5073756;28;20581;-70
2023/08/28 08:08:50;;;;;;;0.40;0.40;;;14.30;99.90;;;;;;5074342;28;20261;-70
2023/08/28 08:11:15;;;;;;;0.70;0.70;;;14.30;99.90;;;;;;5074114;28;20496;-71
2023/08/28 08:13:43;;;;;;;1.00;1.00;;;14.30;99.90;;;;;;5074190;28;20396;-70
2023/08/28 08:16:09;;;;;;;0.53;0.53;;;14.30;99.90;;;;;;5073858;28;20811;-71
2023/08/28 08:18:34;;;;;;;1.17;1.17;;;14.30;99.90;;;;;;5074222;28;20412;-70
2023/08/28 08:21:00;;;;;;;0.53;0.53;;;14.20;99.90;;;;;;5073913;28;20172;-71
2023/08/28 08:23:26;;;;;;;1.47;1.37;;;14.20;99.90;;;;;;5073812;28;20211;-71
2023/08/28 08:25:54;;;;;;;0.50;0.50;;;14.40;99.90;;;;;;5073754;28;20177;-70
2023/08/28 08:28:20;;;;;;;0.60;0.60;;;14.40;99.90;;;;;;5073682;28;20405;-71
2023/08/28 08:30:46;;;;;;;0.50;0.50;;;14.50;99.90;;;;;;5073775;28;20828;-71
2023/08/28 08:33:12;;;;;;;0.50;0.50;;;14.40;99.90;;;;;;5073588;28;20519;-71
2023/08/28 08:35:38;;;;;;;0.90;0.87;;;;;;;;;;5073508;28;20408;-71
2023/08/28 08:38:04;;;;;;;0.80;0.80;;;14.60;99.90;;;;;;5073933;28;20184;-71
2023/08/28 08:40:32;;;;;;;0.43;0.43;;;14.80;99.90;;;;;;5073427;28;20416;-71
2023/08/28 08:42:57;;;;;;;0.70;0.70;;;15.00;99.90;;;;;;5073415;28;20867;-70
2023/08/28 08:45:28;;;;;;;0.70;0.50;;;15.20;99.90;;;;;;5073324;28;20443;-71
2023/08/28 08:47:59;;;;;;;1.07;1.07;;;15.30;99.90;;;;;;5073485;28;20197;-70
2023/08/28 08:50:28;;;;;;;0.90;0.73;;;15.40;99.90;;;;;;5073453;28;20931;-71
2023/08/28 08:53:02;;;;;;;0.60;0.60;;;15.30;99.80;;;;;;5072178;28;20450;-70
2023/08/28 08:55:42;;;;;;;0.67;0.67;;;15.30;99.90;;;;;;5073406;28;20832;-71
2023/08/28 08:58:14;;;;;;;2.07;0.87;;;15.50;99.90;;;;;;5073340;28;20410;-71
2023/08/28 09:00:45;;;;;;;0.50;0.50;;;15.60;99.90;;;;;;5073370;28;20874;-70
2023/08/28 09:03:12;;;;;;;0.70;0.70;;;15.60;99.40;;;;;;5073285;28;20424;-71
2023/08/28 09:05:39;;;;;;;0.43;0.43;;;15.50;99.10;;;;;;5072395;28;20494;-70
2023/08/28 09:08:06;;;;;;;0.40;0.40;;;15.50;99.20;;;;;;5073337;28;20490;-70
2023/08/28 09:10:33;;;;;;;0.60;0.60;;;15.50;98.90;;;;;;5073335;28;20407;-71
2023/08/28 09:12:59;;;;;;;1.13;1.03;;;15.60;99.20;;;;;;5073219;28;20429;-71
2023/08/28 09:15:26;;;;;;;0.40;0.40;;;15.70;99.60;;;;;;5073068;28;20439;-71
2023/08/28 09:17:52;;;;;;;0.80;0.80;;;15.80;98.80;;;;;;5073057;28;20509;-71
2023/08/28 09:20:21;;;;;;;0.40;0.40;;;15.80;98.40;;;;;;5073341;28;20395;-71
2023/08/28 09:22:51;;;;;;;0.60;0.60;;;15.70;98.90;;;;;;5073033;28;20496;-70
2023/08/28 09:25:19;;;;;;;0.73;0.73;;;15.70;98.60;;;;;;5072970;28;20872;-71
2023/08/28 09:27:46;;;;;;;0.70;0.47;;;15.80;98.90;;;;;;5073004;28;20462;-70
2023/08/28 09:30:37;;;;;;;1.07;0.87;;;15.70;97.90;;;;;;5073139;28;20407;-70
2023/08/28 09:33:06;;;;;;;0.60;0.60;;;15.80;97.90;;;;;;5073160;28;20791;-71
2023/08/28 09:35:40;;;;;;;1.30;1.30;;;15.80;98.20;;;;;;5072861;28;20462;-71
2023/08/28 09:38:06;;;;;;;0.60;0.60;;;15.90;98.30;;;;;;5073058;28;20499;-71
2023/08/28 09:40:34;;;;;;;0.60;0.57;;;15.80;97.20;;;;;;5073182;28;20399;-71
2023/08/28 09:43:00;;;;;;;0.30;0.30;;;15.70;98.30;;;;;;5072789;28;20457;-71
2023/08/28 09:45:33;;;;;;;0.50;0.50;;;15.70;99.20;;;;;;5072712;28;20422;-71
2023/08/28 09:48:02;;;;;;;0.70;0.40;;;15.80;98.50;;;;;;5072697;28;20466;-70
2023/08/28 09:50:29;;;;;;;0.60;0.60;;;15.80;97.20;;;;;;5072760;28;20438;-71
2023/08/28 09:53:04;;;;;;;0.77;0.77;;;15.90;98.20;;;;;;5072737;28;20423;-71
2023/08/28 09:55:30;;;;;;;0.67;0.50;;;15.90;98.70;;;;;;5072870;28;20791;-71
2023/08/28 09:57:55;;;;;;;0.50;0.50;;;15.80;97.80;;;;;;5072970;28;20408;-71
2023/08/28 10:00:24;;;;;;;0.60;0.50;;;15.90;97.60;;;;;;5071595;28;20178;-70
2023/08/28 10:02:52;;;;;;;0.50;0.50;;;16.00;97.80;;;;;;5071439;28;20204;-71
2023/08/28 10:05:20;;;;;;;0.50;0.50;;;16.10;97.90;;;;;;5072570;28;20416;-71
2023/08/28 10:07:48;;;;;;;0.70;0.70;;;16.40;98.40;;;;;;5071632;28;20502;-71
2023/08/28 10:10:16;;;;;;;0.43;0.43;;;16.70;96.80;;;;;;5072916;28;20400;-70
2023/08/28 10:12:44;;;;;;;0.87;0.83;;;16.70;96.00;;;;;;5072743;28;20925;-70
2023/08/28 10:15:11;;;;;;;1.70;0.97;;;16.70;96.20;;;;;;5072440;28;20411;-71
2023/08/28 10:17:39;;;;;;;0.70;0.70;;;16.90;96.10;;;;;;5074711;28;20494;-71
2023/08/28 10:20:09;;;;;;;1.00;0.97;;;17.00;96.30;;;;;;5076239;28;20414;-72
2023/08/28 10:22:36;;;;;;;1.33;1.23;;;17.20;96.30;;;;;;5075164;28;20532;-70
2023/08/28 10:25:02;;;;;;;0.77;0.77;;;17.20;95.70;;;;;;5074698;28;20412;-72
2023/08/28 10:27:28;;;;;;;1.07;0.70;;;17.30;95.50;;;;;;5074117;28;20486;-72
2023/08/28 10:29:54;;;;;;;1.63;1.27;;;17.20;96.30;;;;;;5072501;28;20434;-72
2023/08/28 10:32:21;;;;;;;1.13;0.70;;;17.10;95.20;;;;;;5073430;28;20194;-72
2023/08/28 10:34:48;;;;;;;0.50;0.50;;;17.10;95.50;;;;;;5074049;28;20801;-72
2023/08/28 10:37:14;;;;;;;1.00;1.00;;;17.10;94.90;;;;;;5074146;28;20800;-72
2023/08/28 10:39:41;;;;;;;0.60;0.60;;;16.90;95.60;;;;;;5074539;28;20422;-72
2023/08/28 10:42:09;;;;;;;0.70;0.70;;;16.90;97.70;;;;;;5074365;28;20505;-72
2023/08/28 10:44:37;;;;;;;1.60;1.20;;;16.90;98.00;;;;;;5075553;28;20408;-72
2023/08/28 10:47:02;;;;;;;0.40;0.40;;;17.00;95.50;;;;;;5075720;28;20451;-72
2023/08/28 10:49:28;;;;;;;0.60;0.60;;;17.00;96.30;;;;;;5075552;28;20981;-72
2023/08/28 10:52:06;;;;;;;1.90;1.57;;;17.00;96.30;;;;;;5075702;28;20754;-72
2023/08/28 10:54:37;;;;;;;0.60;0.60;;;17.00;96.60;;;;;;5074154;28;20522;-72
2023/08/28 10:57:06;;;;;;;1.07;0.63;;;16.90;96.00;;;;;;5075761;28;20509;-72
2023/08/28 10:59:42;;;;;;;1.00;0.57;;;16.90;97.30;;;;;;5075531;28;20404;-72
2023/08/28 11:02:09;;;;;;;1.00;0.90;;;16.80;94.80;;;;;;5075464;28;20847;-72
2023/08/28 11:04:36;;;;;;;0.30;0.30;;;16.90;96.10;;;;;;5075263;28;20417;-72
2023/08/28 11:07:02;;;;;;;0.70;0.70;;;17.00;95.70;;;;;;5075426;28;20448;-72
2023/08/28 11:09:28;;;;;;;0.93;0.80;;;;;;;;;;5075496;28;20533;-72
2023/08/28 11:12:01;;;;;;;0.60;0.60;;;17.20;95.10;;;;;;5075272;28;20896;-72
2023/08/28 11:14:32;;;;;;;0.60;0.60;;;17.20;96.60;;;;;;5075012;28;20405;-71
2023/08/28 11:17:17;;;;;;;3.80;0.80;;;17.40;95.20;;;;;;5075403;28;20400;-72
2023/08/28 11:19:55;;;;;;;0.93;0.83;;;17.40;93.60;;;;;;5075079;28;20407;-72
2023/08/28 11:22:40;;;;;;;0.63;0.63;;;17.30;94.10;;;;;;5075154;28;20429;-72
2023/08/28 11:25:11;;;;;;;0.50;0.50;;;17.30;94.90;;;;;;5074890;28;20407;-72
2023/08/28 11:27:37;;;;;;;0.60;0.47;;;17.30;96.00;;;;;;5075037;28;20449;-72
2023/08/28 11:30:06;;;;;;;0.60;0.60;;;17.00;96.30;;;;;;5074355;28;20464;-72
2023/08/28 11:32:37;;;;;;;0.40;0.40;;;16.90;95.00;;;;;;5075151;28;20185;-72
2023/08/28 11:35:04;;;;;;;7.40;0.67;;;17.10;96.10;;;;;;5074827;28;20453;-72
2023/08/28 11:37:42;;;;;;;0.40;0.40;;;17.20;96.10;;;;;;5074845;28;20454;-72
2023/08/28 11:40:09;;;;;;;0.93;0.93;;;17.30;95.60;;;;;;5074663;28;20414;-72
2023/08/28 11:42:38;;;;;;;0.90;0.90;;;17.40;96.80;;;;;;5074748;28;20423;-72
2023/08/28 11:45:05;;;;;;;0.60;0.60;;;17.40;96.40;;;;;;5074642;28;20892;-72
2023/08/28 11:47:32;;;;;;;0.83;0.83;;;17.40;95.30;;;;;;5074664;28;20542;-72
2023/08/28 11:49:59;;;;;;;0.70;0.67;;;17.50;95.40;;;;;;5074539;28;20421;-72
2023/08/28 11:52:25;;;;;;;0.50;0.50;;;17.50;95.30;;;;;;5074510;28;20926;-71
2023/08/28 11:54:57;;;;;;;0.60;0.60;;;17.40;94.80;;;;;;5074194;28;20414;-72
2023/08/28 11:57:25;;;;;;;0.90;0.77;;;;;;;;;;5074820;28;20485;-72
2023/08/28 11:59:51;;;;;;;1.27;0.80;;;17.10;94.30;;;;;;5074399;28;20434;-72
2023/08/28 12:02:19;;;;;;;0.73;0.70;;;17.00;95.80;;;;;;5074179;28;20788;-72
2023/08/28 12:04:50;;;;;;;1.37;0.80;;;16.90;96.10;;;;;;5074231;28;20491;-72
2023/08/28 12:07:20;;;;;;;0.40;0.40;;;16.90;96.80;;;;;;5074326;28;20850;-72
2023/08/28 12:09:49;;;;;;;0.77;0.77;;;16.90;96.60;;;;;;5074086;28;20491;-71
2023/08/28 12:12:16;;;;;;;0.77;0.50;;;16.80;96.30;;;;;;5074016;28;20470;-71
2023/08/28 12:14:43;;;;;;;0.60;0.60;;;16.70;96.10;;;;;;5074014;28;20404;-71
2023/08/28 12:17:13;;;;;;;1.23;0.60;;;16.70;96.40;;;;;;5074127;28;20466;-71
2023/08/28 12:19:39;;;;;;;0.57;0.57;;;16.60;96.00;;;;;;5073903;28;20752;-71
2023/08/28 12:22:05;;;;;;;0.43;0.43;;;16.40;96.40;;;;;;5073760;28;20533;-72
2023/08/28 12:24:31;;;;;;;0.40;0.40;;;;;;;;;;5073705;28;20227;-71
2023/08/28 12:26:57;;;;;;;0.67;0.67;;;16.30;96.20;;;;;;5073703;28;20814;-71
2023/08/28 12:29:26;;;;;;;0.50;0.50;;;16.30;97.40;;;;;;5073776;28;20407;-71
2023/08/28 12:31:52;;;;;;;1.03;1.00;;;16.40;98.40;;;;;;5073958;28;20243;-72
2023/08/28 12:34:18;;;;;;;0.50;0.50;;;16.40;96.80;;;;;;5073472;28;20839;-71
2023/08/28 12:36:47;;;;;;;0.60;0.57;;;16.50;97.40;;;;;;5073853;28;20169;-72
2023/08/28 12:39:20;;;;;;;0.57;0.57;;;16.50;97.30;;;;;;5073836;28;20491;-71
2023/08/28 12:41:51;;;;;;;0.40;0.40;;;16.50;97.60;;;;;;5072758;28;20515;-72
2023/08/28 12:44:17;;;;;;;0.50;0.50;;;16.60;97.70;;;;;;5073352;28;20494;-72
2023/08/28 12:46:43;;;;;;;1.07;0.70;;;;;;;;;;5073632;28;20888;-72
2023/08/28 12:49:11;;;;;;;0.50;0.50;;;16.50;96.70;;;;;;5073319;28;20426;-72
2023/08/28 12:51:38;;;;;;;0.50;0.50;;;16.50;97.00;;;;;;5073379;28;20424;-71
2023/08/28 12:54:05;;;;;;;1.80;1.70;;;16.30;96.90;;;;;;5073222;28;20444;-72